Terminal Aerodrome Forecast
Issued by NWS Binghamton, NY

Home | Current Version | Previous Version | Text Only | Print | Product List | Glossary On
Versions: 1 2 3 4 5 6 7 8 9 10 11 12 13 14 15 16
000
FTUS41 KBGM 291120
TAFSYR
TAF
KSYR 291120Z 2912/3012 VRB03KT P6SM SCT250
     FM291400 25007KT P6SM SCT050 BKN250
     FM300000 VRB03KT P6SM OVC100=

USA.gov is the U.S. government's official web portal to all federal, state and local government web resources and services.